Terminal Aerodrome Forecast
Issued by NWS

Home | Current Version | Previous Version | Text Only | Print | Product List | Glossary Off
Versions: 1 2 3 4 5 6 7 8 9 10 11 12 13 14 15 16 17 18 19 20 21 22

000
FTUS43 KGRB 200900 AAB
TAFAUW
TAF AMD
KAUW 200902Z 2009/2106 05006KT P6SM -RA SCT035 OVC050
      TEMPO 2010/2012 6SM -RA BKN025 OVC040
     FM201200 30009KT P6SM SCT010 OVC018
     FM201500 29016G25KT P6SM OVC020
     FM202000 28015G25KT P6SM SCT025 OVC040
     FM210100 28010KT P6SM OVC040=

USA.gov is the U.S. government's official web portal to all federal, state and local government web resources and services.